Cairo, Egypt
Current Conditions -  °F | °C
As of 6:00 PM on Friday 24 Oct 2014 (Local Time) from HECA Reporting Station
Clear Clear  
Wind Chill: 84°   Ceiling: Unl
Heat Index: 84°   Visibility: 6mi
Dew Point: 41°   Wind: 0mph
Humidity: 22%   Direction: NA
Pressure: 29.97"   Gusts: NA
Location:  30.06°N, 31.25°E
Report Text: HECA 241600Z 00000KT CAVOK 29/05 Q1015 NOSIG
Loading
Personal Weather Stations






























Interactive Weather Map
Tropical Storm Tracking
New forecast layout! Learn more

10-Day Weather Forecast

Advertisements
Track Severe Weather on mobile